Time;durP1;ratioP1;P1;durP2;ratioP2;P2;SDS_P1;SDS_P2;PMS_P1;PMS_P2;Temp;Humidity;BMP_temperature;BMP_pressure;BME280_temperature;BME280_humidity;BME280_pressure;Samples;Min_cycle;Max_cycle;Signal;HPM_P1;HPM_P2
2021/09/24 00:02:18;;;;;;;15.70;8.55;;;14.80;99.90;;;16.05;100.00;100626.25;6046700;23;20389;-86
2021/09/24 00:04:46;;;;;;;16.80;8.70;;;14.80;99.90;;;16.08;100.00;100627.47;6072422;23;20007;-83
2021/09/24 00:07:13;;;;;;;15.07;8.77;;;14.80;99.90;;;16.09;100.00;100629.06;6070873;23;20022;-85
2021/09/24 00:09:39;;;;;;;14.50;9.38;;;14.80;99.90;;;16.08;100.00;100619.81;6048265;23;20011;-88
2021/09/24 00:12:06;;;;;;;14.52;9.45;;;14.80;99.90;;;16.11;100.00;100621.84;6075007;23;20429;-87
2021/09/24 00:14:32;;;;;;;19.85;10.77;;;14.80;99.90;;;16.11;100.00;100618.22;6075677;23;20022;-86
2021/09/24 00:16:58;;;;;;;19.75;11.35;;;14.80;99.90;;;16.10;100.00;100614.59;6050482;23;20003;-86
2021/09/24 00:19:24;;;;;;;17.52;11.77;;;14.80;99.90;;;16.03;100.00;100605.28;6051685;23;20042;-87
2021/09/24 00:21:50;;;;;;;16.85;10.90;;;14.80;99.90;;;16.07;100.00;100606.94;6051504;23;20011;-86
2021/09/24 00:24:15;;;;;;;19.50;12.25;;;14.80;99.90;;;16.09;100.00;100614.97;6052477;23;20010;-87
2021/09/24 00:26:41;;;;;;;18.52;12.05;;;14.80;99.90;;;15.97;100.00;100604.06;6055488;23;20014;-85
2021/09/24 00:29:07;;;;;;;17.65;12.32;;;14.80;99.90;;;16.02;100.00;100606.50;6072750;23;20015;-84
2021/09/24 00:31:33;;;;;;;21.00;11.80;;;14.80;99.90;;;16.02;100.00;100603.69;6047899;23;20111;-86
2021/09/24 00:33:59;;;;;;;19.80;12.10;;;14.80;99.90;;;16.09;100.00;100604.50;6047521;23;20337;-87
2021/09/24 00:36:24;;;;;;;24.30;15.25;;;14.80;99.90;;;16.14;100.00;100603.34;6073503;23;20006;-85
2021/09/24 00:38:50;;;;;;;22.33;15.23;;;14.80;99.90;;;16.08;100.00;100602.91;6047691;23;20022;-84
2021/09/24 00:41:16;;;;;;;21.40;11.90;;;14.80;99.90;;;16.14;100.00;100604.13;6074176;23;20018;-85
2021/09/24 00:43:42;;;;;;;18.58;14.23;;;14.80;99.90;;;16.18;100.00;100604.94;6048328;23;20070;-85
2021/09/24 00:46:08;;;;;;;24.23;15.10;;;14.90;99.90;;;16.16;100.00;100598.91;6048484;23;20441;-83
2021/09/24 00:48:33;;;;;;;27.42;16.38;;;14.90;99.90;;;16.15;100.00;100597.28;6049232;23;20433;-84
2021/09/24 00:51:01;;;;;;;27.05;15.90;;;14.90;99.90;;;16.18;100.00;100592.88;6048105;23;20003;-86
2021/09/24 00:53:29;;;;;;;22.63;15.10;;;14.80;99.90;;;16.19;100.00;100594.47;6049358;23;20022;-88
2021/09/24 00:55:58;;;;;;;26.55;17.05;;;14.90;99.90;;;16.17;100.00;100592.06;6049207;23;20025;-84
2021/09/24 00:58:26;;;;;;;34.10;19.63;;;14.90;99.90;;;16.16;100.00;100592.47;6048141;23;20294;-86
2021/09/24 01:00:53;;;;;;;28.17;18.35;;;14.80;99.90;;;16.15;100.00;100590.88;6048832;23;20014;-85
2021/09/24 01:03:20;;;;;;;26.40;16.67;;;14.90;99.90;;;16.17;100.00;100589.25;6074698;23;20093;-87
2021/09/24 01:05:47;;;;;;;28.20;19.05;;;14.90;99.90;;;16.10;100.00;100589.22;6074873;23;20026;-85
2021/09/24 01:08:14;;;;;;;26.48;16.73;;;14.90;99.90;;;16.15;100.00;100585.22;6049086;23;20038;-84
2021/09/24 01:10:41;;;;;;;32.28;20.95;;;14.90;99.90;;;16.23;100.00;100584.84;6049380;23;20014;-86
2021/09/24 01:13:07;;;;;;;36.75;20.65;;;14.90;99.90;;;16.22;100.00;100585.22;6073411;23;20037;-85
2021/09/24 01:15:33;;;;;;;32.35;22.30;;;14.90;99.90;;;16.24;100.00;100594.91;6048495;23;20013;-84
2021/09/24 01:17:59;;;;;;;32.53;20.63;;;14.90;99.90;;;16.25;100.00;100587.25;6049055;23;20441;-84
2021/09/24 01:20:26;;;;;;;34.47;21.50;;;14.90;99.90;;;16.21;100.00;100587.22;6048845;23;20359;-87
2021/09/24 01:22:52;;;;;;;38.45;22.15;;;14.90;99.90;;;16.24;100.00;100589.28;6053267;23;20003;-86
2021/09/24 01:25:23;;;;;;;29.25;19.15;;;14.90;99.90;;;16.25;100.00;100579.59;6052484;23;20504;-88
2021/09/24 01:27:51;;;;;;;31.25;21.10;;;14.90;99.90;;;16.26;100.00;100584.03;6076409;23;20493;-87
2021/09/24 01:30:19;;;;;;;33.50;21.48;;;14.90;99.90;;;16.26;100.00;100583.22;6077641;23;20013;-86
2021/09/24 01:32:46;;;;;;;36.65;22.73;;;15.00;99.90;;;16.24;100.00;100588.47;6050371;23;20014;-87
2021/09/24 01:35:15;;;;;;;37.33;23.77;;;15.00;99.90;;;16.24;100.00;100594.91;6049317;23;20046;-85
2021/09/24 01:37:42;;;;;;;34.50;21.88;;;15.00;99.90;;;16.24;100.00;100600.56;6049359;23;20014;-84
2021/09/24 01:40:15;;;;;;;42.50;23.98;;;14.90;99.90;;;16.27;100.00;100601.75;6075290;23;20078;-87
2021/09/24 01:42:43;;;;;;;32.90;20.90;;;14.90;99.90;;;16.27;100.00;100608.22;6048790;23;20007;-87
2021/09/24 01:45:11;;;;;;;35.65;23.83;;;15.00;99.90;;;16.26;100.00;100609.41;6074360;23;20010;-86
2021/09/24 01:47:38;;;;;;;35.08;22.40;;;15.00;99.90;;;16.28;100.00;100607.00;6073834;23;20006;-86
2021/09/24 01:50:09;;;;;;;30.67;19.33;;;14.90;99.90;;;16.27;100.00;100610.22;6048415;23;20357;-84
2021/09/24 01:52:37;;;;;;;37.08;23.67;;;14.90;99.90;;;16.26;100.00;100595.31;6048490;23;20512;-86
2021/09/24 01:55:05;;;;;;;34.53;21.65;;;14.90;99.90;;;16.25;100.00;100606.97;6048247;23;20015;-86
2021/09/24 01:57:31;;;;;;;30.67;20.15;;;14.90;99.90;;;16.23;100.00;100607.38;6075421;23;20078;-86
2021/09/24 01:59:57;;;;;;;35.55;21.42;;;15.00;99.90;;;16.24;100.00;100609.00;6049103;23;20500;-84
2021/09/24 02:02:24;;;;;;;37.15;21.40;;;15.00;99.90;;;16.25;100.00;100604.16;6048723;23;20081;-86
2021/09/24 02:04:50;;;;;;;37.92;22.80;;;14.90;99.90;;;16.27;100.00;100599.75;6049719;23;20010;-83
2021/09/24 02:07:16;;;;;;;36.35;24.27;;;14.90;99.90;;;16.25;100.00;100590.88;6049363;23;20086;-83
2021/09/24 02:09:42;;;;;;;37.70;22.88;;;14.90;99.90;;;16.19;100.00;100592.47;6063278;23;20019;-84
2021/09/24 02:12:08;;;;;;;35.15;22.27;;;14.90;99.90;;;16.22;100.00;100594.50;6061747;23;20046;-86
2021/09/24 02:14:35;;;;;;;28.75;20.67;;;14.90;99.90;;;16.22;100.00;100588.84;6071566;23;20011;-84
2021/09/24 02:17:03;;;;;;;37.38;23.65;;;14.90;99.90;;;16.24;100.00;100591.28;6072831;23;20090;-83
2021/09/24 02:19:31;;;;;;;25.77;18.23;;;14.90;99.90;;;16.24;100.00;100594.91;6072188;23;20026;-85
2021/09/24 02:21:59;;;;;;;35.17;21.73;;;15.00;99.90;;;16.27;100.00;100591.31;6073019;23;20003;-85
2021/09/24 02:24:25;;;;;;;33.13;21.17;;;14.90;99.90;;;16.26;100.00;100589.69;6046346;23;20007;-85
2021/09/24 02:26:52;;;;;;;35.25;22.42;;;14.90;99.90;;;16.22;100.00;100590.88;6070917;23;20003;-85
2021/09/24 02:29:19;;;;;;;35.75;21.02;;;14.90;99.90;;;16.23;100.00;100590.47;6072426;23;20062;-87
2021/09/24 02:31:45;;;;;;;33.53;20.52;;;14.90;99.90;;;16.26;100.00;100597.31;6046666;23;20098;-86
2021/09/24 02:34:11;;;;;;;36.03;23.00;;;14.90;99.90;;;16.24;100.00;100594.91;6047215;23;20464;-84
2021/09/24 02:36:38;;;;;;;40.42;24.23;;;14.90;99.90;;;16.21;100.00;100592.88;6046660;23;20017;-86
2021/09/24 02:39:07;;;;;;;37.40;20.35;;;14.90;99.90;;;16.23;100.00;100593.31;6072034;23;20011;-88
2021/09/24 02:41:33;;;;;;;41.30;22.88;;;14.90;99.90;;;16.23;100.00;100586.84;6074653;23;20073;-86
2021/09/24 02:43:59;;;;;;;41.30;23.00;;;14.90;99.90;;;16.19;100.00;100588.84;6048481;23;20034;-88
2021/09/24 02:46:25;;;;;;;34.72;23.25;;;14.90;99.90;;;16.19;100.00;100595.28;6049274;23;20015;-86
2021/09/24 02:48:52;;;;;;;36.45;22.05;;;14.90;99.90;;;16.20;100.00;100591.28;6075221;23;20127;-87
2021/09/24 02:51:18;;;;;;;42.20;25.83;;;14.90;99.90;;;16.22;100.00;100588.03;6082744;23;20049;-82
2021/09/24 02:53:44;;;;;;;42.45;23.30;;;14.90;99.90;;;16.18;100.00;100585.22;6049893;23;20007;-86
2021/09/24 02:56:10;;;;;;;35.85;23.63;;;14.90;99.90;;;16.23;100.00;100596.13;6057834;23;20007;-87
2021/09/24 02:58:35;;;;;;;36.65;25.67;;;14.90;99.90;;;16.23;100.00;100590.47;6056550;23;20022;-86
2021/09/24 03:01:02;;;;;;;41.70;26.05;;;14.90;99.90;;;16.22;100.00;100593.69;6048573;23;20092;-86
2021/09/24 03:03:28;;;;;;;47.17;26.58;;;14.90;99.90;;;16.18;100.00;100595.69;6048526;23;20014;-85
2021/09/24 03:05:54;;;;;;;42.75;28.30;;;14.90;99.90;;;16.15;100.00;100588.81;6048810;23;20011;-86
2021/09/24 03:08:20;;;;;;;42.47;26.25;;;14.90;99.90;;;16.13;100.00;100590.44;6071755;23;20010;-86
2021/09/24 03:10:46;;;;;;;45.25;27.20;;;14.90;99.90;;;16.17;100.00;100597.72;6047875;23;20007;-87
2021/09/24 03:13:12;;;;;;;52.85;30.25;;;14.90;99.90;;;16.19;100.00;100588.84;6049151;23;20034;-87
2021/09/24 03:15:37;;;;;;;49.28;29.92;;;14.90;99.90;;;16.17;100.00;100586.44;6049333;23;20018;-86
2021/09/24 03:18:03;;;;;;;49.05;28.90;;;14.90;99.90;;;16.24;100.00;100588.47;6050397;23;20011;-85
2021/09/24 03:20:29;;;;;;;44.17;27.30;;;15.00;99.90;;;16.27;100.00;100596.13;6075699;23;20003;-86
2021/09/24 03:22:55;;;;;;;41.58;27.88;;;14.90;99.90;;;16.26;100.00;100589.69;6075137;23;20022;-88
2021/09/24 03:25:22;;;;;;;44.30;29.20;;;14.90;99.90;;;16.26;100.00;100591.69;6049143;23;20011;-86
2021/09/24 03:27:49;;;;;;;44.63;26.75;;;14.90;99.90;;;16.24;100.00;100591.28;6050510;23;20157;-86
2021/09/24 03:30:16;;;;;;;53.40;30.45;;;14.90;99.90;;;16.28;100.00;100586.44;6050676;23;20018;-85
2021/09/24 03:32:44;;;;;;;51.75;30.52;;;15.00;99.90;;;16.29;100.00;100590.88;6074171;23;20015;-86
2021/09/24 03:35:12;;;;;;;48.53;30.27;;;15.00;99.90;;;16.24;100.00;100597.75;6050758;23;20011;-86
2021/09/24 03:37:39;;;;;;;43.80;26.98;;;14.90;99.90;;;16.27;100.00;100585.66;6073183;23;20532;-87
2021/09/24 03:40:06;;;;;;;44.28;27.83;;;14.90;99.90;;;16.24;100.00;100586.47;6073431;23;20464;-88
2021/09/24 03:42:32;;;;;;;48.88;30.23;;;14.90;99.90;;;16.23;100.00;100584.84;6049417;23;20023;-86
2021/09/24 03:44:58;;;;;;;49.38;29.77;;;14.90;99.90;;;16.25;100.00;100596.50;6051053;23;20445;-84
2021/09/24 03:47:23;;;;;;;43.83;29.40;;;14.90;99.90;;;16.24;100.00;100586.47;6050886;23;20019;-86
2021/09/24 03:49:50;;;;;;;45.85;30.48;;;14.90;99.90;;;16.25;100.00;100585.25;6053682;23;20442;-87
2021/09/24 03:52:17;;;;;;;42.75;29.33;;;14.90;99.90;;;16.26;100.00;100586.06;6077799;23;20007;-84
2021/09/24 03:54:43;;;;;;;50.47;30.67;;;14.90;99.90;;;16.26;100.00;100591.69;6078230;23;20001;-87
2021/09/24 03:57:09;;;;;;;50.85;31.33;;;15.00;99.90;;;16.32;100.00;100581.63;6051634;23;20014;-84
2021/09/24 03:59:35;;;;;;;48.83;30.65;;;15.00;99.90;;;16.27;100.00;100582.03;6052424;23;20050;-86
2021/09/24 04:02:01;;;;;;;48.08;30.98;;;14.90;99.90;;;16.25;100.00;100590.88;6052504;23;20011;-85
2021/09/24 04:04:27;;;;;;;51.92;32.63;;;14.90;99.90;;;16.24;100.00;100594.91;6052470;23;20017;-86
2021/09/24 04:06:53;;;;;;;51.90;33.47;;;14.90;99.90;;;16.28;100.00;100590.06;6051952;23;20405;-87
2021/09/24 04:09:20;;;;;;;51.42;34.38;;;14.90;99.90;;;16.25;100.00;100593.69;6052026;23;20010;-87
2021/09/24 04:11:46;;;;;;;55.50;35.38;;;14.90;99.90;;;16.25;100.00;100592.88;6051160;23;20013;-85
2021/09/24 04:14:12;;;;;;;51.03;33.47;;;14.90;99.90;;;16.26;100.00;100591.69;6077805;23;20027;-86
2021/09/24 04:16:39;;;;;;;52.58;35.78;;;14.90;99.90;;;16.28;100.00;100587.25;6077956;23;20041;-87
2021/09/24 04:19:04;;;;;;;58.15;38.15;;;14.90;99.90;;;16.28;100.00;100594.91;6052532;23;20003;-85
2021/09/24 04:21:31;;;;;;;62.03;40.22;;;14.90;99.90;;;16.24;100.00;100591.28;6070555;23;20007;-83
2021/09/24 04:23:57;;;;;;;66.18;40.35;;;15.00;99.90;;;16.27;100.00;100591.31;6063499;23;20015;-85
2021/09/24 04:26:23;;;;;;;66.32;41.78;;;14.90;99.90;;;16.21;100.00;100589.28;6079921;23;20470;-85
2021/09/24 04:28:49;;;;;;;69.47;43.08;;;15.00;99.90;;;16.23;100.00;100590.47;6049695;23;20034;-86
2021/09/24 04:31:14;;;;;;;69.05;41.30;;;15.00;99.90;;;16.22;100.00;100586.03;6050372;23;20011;-84
2021/09/24 04:33:41;;;;;;;62.30;39.00;;;15.00;99.90;;;16.30;100.00;100586.88;6048096;23;20007;-83
2021/09/24 04:36:07;;;;;;;68.63;42.08;;;15.00;99.90;;;16.29;100.00;100588.88;6048812;23;20014;-83
2021/09/24 04:38:33;;;;;;;70.28;42.63;;;15.00;99.90;;;16.31;100.00;100586.47;6072377;23;20010;-86
2021/09/24 04:40:59;;;;;;;72.15;42.28;;;15.00;99.90;;;16.34;100.00;100584.88;6048545;23;20029;-86
2021/09/24 04:43:24;;;;;;;74.32;41.00;;;15.00;99.90;;;16.31;100.00;100591.31;6048527;23;20337;-86
2021/09/24 04:45:50;;;;;;;69.68;40.72;;;15.00;99.90;;;16.30;100.00;100587.69;6048577;23;20010;-87
2021/09/24 04:48:16;;;;;;;65.72;40.95;;;14.90;99.90;;;16.34;100.00;100588.47;6047807;23;20006;-86
2021/09/24 04:50:42;;;;;;;66.72;40.95;;;15.00;99.90;;;16.32;100.00;100568.34;6049178;23;20438;-86
2021/09/24 04:53:08;;;;;;;71.60;42.80;;;15.00;99.90;;;16.28;100.00;100564.72;6049026;23;20015;-86
2021/09/24 04:55:34;;;;;;;70.15;42.13;;;15.00;99.90;;;16.30;100.00;100572.78;6073129;23;20010;-86
2021/09/24 04:58:00;;;;;;;73.05;43.40;;;15.00;99.90;;;16.59;100.00;100573.69;6049498;23;20092;-86
2021/09/24 05:00:26;;;;;;;72.95;43.42;;;15.00;99.90;;;16.38;100.00;100576.41;6074595;23;20006;-86
2021/09/24 05:02:51;;;;;;;74.40;45.75;;;15.00;99.90;;;16.29;100.00;100577.59;6048909;23;20007;-85
2021/09/24 05:05:17;;;;;;;79.25;45.80;;;15.00;99.90;;;16.27;100.00;100582.03;6050735;23;20006;-87
2021/09/24 05:07:43;;;;;;;81.32;44.28;;;15.00;99.90;;;16.27;100.00;100591.31;6050362;23;20365;-88
2021/09/24 05:10:10;;;;;;;79.95;46.50;;;15.00;99.90;;;16.28;100.00;100583.63;6050784;23;20229;-87
2021/09/24 05:12:36;;;;;;;90.90;50.00;;;15.00;99.90;;;16.31;100.00;100583.66;6052242;23;20057;-87
2021/09/24 05:15:02;;;;;;;86.72;47.10;;;15.00;99.90;;;16.33;100.00;100578.44;6054508;23;20015;-88
2021/09/24 05:17:27;;;;;;;88.10;48.20;;;15.10;99.90;;;16.26;100.00;100575.59;6076900;23;20010;-86
2021/09/24 05:19:55;;;;;;;85.75;47.65;;;15.00;99.90;;;16.35;100.00;100572.38;6072632;23;20037;-87
2021/09/24 05:22:21;;;;;;;94.25;49.33;;;15.00;99.90;;;16.36;100.00;100571.19;6049389;23;20011;-85
2021/09/24 05:24:47;;;;;;;96.38;50.90;;;15.10;99.90;;;16.39;100.00;100566.75;6048512;23;20010;-86
2021/09/24 05:27:13;;;;;;;98.97;50.45;;;15.10;99.90;;;16.40;100.00;100565.56;6049065;23;20345;-88
2021/09/24 05:29:40;;;;;;;93.85;49.55;;;15.10;99.90;;;16.40;100.00;100566.38;6050558;23;20014;-85
2021/09/24 05:32:06;;;;;;;98.43;51.50;;;15.10;99.90;;;16.40;100.00;100568.38;6076730;23;20007;-88
2021/09/24 05:34:32;;;;;;;95.65;48.58;;;15.10;99.90;;;16.41;100.00;100570.00;6076495;23;20274;-85
2021/09/24 05:36:59;;;;;;;91.50;48.17;;;15.10;99.90;;;16.45;100.00;100567.97;6050316;23;20345;-87
2021/09/24 05:39:25;;;;;;;90.00;47.17;;;15.10;99.90;;;16.41;100.00;100576.41;6075001;23;20021;-84
2021/09/24 05:41:51;;;;;;;84.38;47.45;;;15.10;99.90;;;16.44;100.00;100566.38;6049524;23;20010;-86
2021/09/24 05:44:17;;;;;;;85.32;48.33;;;15.10;99.90;;;16.36;100.00;100576.81;6078169;23;20007;-87
2021/09/24 05:46:42;;;;;;;89.57;46.75;;;15.10;99.90;;;16.46;100.00;100576.03;6050918;23;20015;-86
2021/09/24 05:49:09;;;;;;;82.45;44.45;;;15.20;99.90;;;16.40;100.00;100579.66;6074535;23;20349;-84
2021/09/24 05:51:35;;;;;;;79.38;45.30;;;15.20;99.90;;;16.40;100.00;100576.84;6049614;23;20438;-85
2021/09/24 05:54:01;;;;;;;78.43;46.42;;;15.20;99.90;;;16.32;100.00;100579.63;6074161;23;20034;-84
2021/09/24 05:56:27;;;;;;;82.35;43.80;;;15.10;99.90;;;16.44;100.00;100580.47;6049414;23;20015;-84
2021/09/24 05:58:54;;;;;;;84.40;44.13;;;15.20;99.90;;;16.49;100.00;100582.88;6050407;23;20357;-85
2021/09/24 06:01:20;;;;;;;76.03;40.83;;;15.20;99.90;;;16.54;100.00;100583.28;6050354;23;20105;-86
2021/09/24 06:03:45;;;;;;;81.43;43.00;;;15.20;99.90;;;16.54;100.00;100577.66;6049023;23;20010;-85
2021/09/24 06:06:11;;;;;;;79.38;40.97;;;15.20;99.90;;;16.57;100.00;100590.16;6051062;23;20017;-85
2021/09/24 06:08:37;;;;;;;73.55;40.58;;;15.30;99.90;;;16.57;100.00;100588.16;6050262;23;20059;-86
2021/09/24 06:11:03;;;;;;;69.03;38.97;;;15.30;99.90;;;16.61;100.00;100585.34;6075655;23;20011;-87
2021/09/24 06:13:29;;;;;;;67.80;39.15;;;15.30;99.90;;;16.61;100.00;100576.91;6075177;23;20010;-87
2021/09/24 06:15:55;;;;;;;81.28;41.78;;;15.40;99.90;;;16.67;100.00;100580.94;6049651;23;20011;-85
2021/09/24 06:18:22;;;;;;;70.10;39.95;;;15.30;99.90;;;16.70;100.00;100580.94;6074302;23;20007;-86
2021/09/24 06:20:47;;;;;;;68.80;37.65;;;15.40;99.90;;;16.74;100.00;100573.28;6052501;23;20018;-86
2021/09/24 06:23:13;;;;;;;69.60;40.22;;;15.40;99.90;;;16.71;100.00;100570.47;6059990;23;20007;-85
2021/09/24 06:25:39;;;;;;;74.78;41.30;;;15.40;99.90;;;16.76;100.00;100570.88;6077944;23;20022;-85
2021/09/24 06:28:05;;;;;;;70.40;40.03;;;15.50;99.90;;;16.71;100.00;100568.47;6077128;23;20007;-85
2021/09/24 06:30:33;;;;;;;70.20;37.45;;;15.40;99.90;;;16.78;100.00;100568.47;6069988;23;20078;-84
2021/09/24 06:32:59;;;;;;;65.10;37.42;;;15.50;99.90;;;16.83;100.00;100567.25;6057739;23;20098;-87
2021/09/24 06:35:25;;;;;;;70.32;38.72;;;15.50;99.90;;;16.84;100.00;100566.84;6074879;23;20018;-85
2021/09/24 06:37:51;;;;;;;70.78;39.25;;;15.50;99.90;;;16.85;100.00;100571.28;6050304;23;20018;-85
2021/09/24 06:40:17;;;;;;;69.78;38.33;;;15.50;99.90;;;16.91;100.00;100570.88;6051364;23;20018;-85
2021/09/24 06:42:46;;;;;;;69.18;39.03;;;15.60;99.90;;;16.96;100.00;100570.47;6050123;23;20011;-86
2021/09/24 06:45:13;;;;;;;69.45;39.33;;;15.60;99.90;;;16.85;100.00;100570.47;6050425;23;20014;-85
2021/09/24 06:47:42;;;;;;;70.43;38.50;;;15.60;99.90;;;17.00;100.00;100563.63;6058077;23;20017;-84
2021/09/24 06:50:14;;;;;;;70.60;38.15;;;15.60;99.90;;;17.04;100.00;100570.06;6080086;23;20030;-86
2021/09/24 06:52:41;;;;;;;80.93;40.53;;;15.70;99.90;;;16.92;100.00;100572.50;6080131;23;20403;-85
2021/09/24 06:55:08;;;;;;;68.93;38.33;;;15.70;99.90;;;17.05;100.00;100574.50;6050781;23;20066;-86
2021/09/24 06:57:41;;;;;;;70.57;37.97;;;15.70;99.90;;;17.09;100.00;100580.13;6088165;23;20002;-85
2021/09/24 07:00:14;;;;;;;72.50;38.10;;;15.70;99.90;;;17.21;100.00;100568.47;6061618;23;20450;-83
2021/09/24 07:02:42;;;;;;;67.28;37.70;;;15.80;99.90;;;17.24;100.00;100582.53;6041617;23;20032;-83
2021/09/24 07:05:10;;;;;;;73.00;38.20;;;15.80;99.90;;;17.25;100.00;100575.69;6067532;23;20017;-86
2021/09/24 07:07:36;;;;;;;72.18;37.25;;;15.80;99.90;;;17.22;100.00;100575.69;6083525;23;20008;-87
2021/09/24 07:10:03;;;;;;;78.35;38.45;;;15.90;99.90;;;17.27;100.00;100581.72;6053664;23;20011;-87
2021/09/24 07:12:40;;;;;;;70.50;37.45;;;15.80;99.90;;;17.28;100.00;100579.72;6051166;23;20011;-85
2021/09/24 07:15:06;;;;;;;71.63;35.80;;;15.90;99.90;;;17.33;100.00;100584.97;6052981;23;20337;-83
2021/09/24 07:17:32;;;;;;;74.93;35.70;;;15.90;99.90;;;17.38;100.00;100596.66;6053702;23;20006;-85
2021/09/24 07:19:59;;;;;;;74.85;37.25;;;16.00;99.90;;;17.38;100.00;100593.00;6076078;23;20022;-85
2021/09/24 07:22:27;;;;;;;70.72;36.92;;;16.00;99.90;;;17.19;100.00;100591.44;6051867;23;20323;-85
2021/09/24 07:24:54;;;;;;;69.50;34.95;;;16.00;99.90;;;17.30;100.00;100588.59;6073649;23;20007;-86
2021/09/24 07:27:23;;;;;;;66.78;35.10;;;16.00;99.90;;;17.32;100.00;100589.81;6052075;23;20030;-84
2021/09/24 07:29:50;;;;;;;73.95;37.13;;;15.90;99.90;;;17.23;100.00;100589.41;6073672;23;20037;-86
2021/09/24 07:32:18;;;;;;;70.30;36.65;;;15.90;99.90;;;17.26;100.00;100588.59;6077122;23;20077;-85
2021/09/24 07:34:44;;;;;;;60.28;32.45;;;15.90;99.90;;;17.27;100.00;100586.59;6051787;23;20034;-84
2021/09/24 07:37:12;;;;;;;65.53;32.42;;;16.00;99.90;;;17.32;100.00;100589.81;6077394;23;20006;-86
2021/09/24 07:39:39;;;;;;;62.80;33.47;;;16.00;99.90;;;17.26;100.00;100585.78;6074975;23;20322;-85
2021/09/24 07:42:07;;;;;;;63.35;32.60;;;15.90;99.90;;;17.27;100.00;100584.53;6050236;23;20015;-84
2021/09/24 07:44:33;;;;;;;61.15;32.65;;;15.90;99.90;;;17.27;100.00;100589.41;6075544;23;20021;-86
2021/09/24 07:47:00;;;;;;;60.90;32.42;;;15.90;99.90;;;17.26;100.00;100587.78;6051798;23;20064;-86
2021/09/24 07:49:34;;;;;;;61.20;33.42;;;15.90;99.90;;;17.17;100.00;100593.84;6078015;23;20014;-82
2021/09/24 07:52:04;;;;;;;54.92;31.25;;;16.00;99.90;;;17.15;100.00;100595.44;6054002;23;20007;-84
2021/09/24 07:54:31;;;;;;;59.58;32.67;;;15.90;99.90;;;17.11;100.00;100594.66;6053702;23;20074;-83
2021/09/24 11:19:42;;;;;;;22.38;15.20;;;18.30;99.90;;;19.81;88.33;100607.72;6049099;23;20023;-90
2021/09/24 11:22:17;;;;;;;25.58;15.43;;;18.50;99.90;;;19.85;86.64;100597.13;6022356;23;20055;-90
2021/09/24 11:25:05;;;;;;;25.88;15.15;;;18.60;99.90;;;19.75;87.52;100605.75;6027526;23;20007;-89
2021/09/24 11:27:46;;;;;;;20.48;13.68;;;18.50;99.90;;;19.88;87.04;100601.97;6024922;23;20386;-92
2021/09/24 11:30:26;;;;;;;21.77;14.02;;;18.60;99.90;;;20.14;85.80;100591.94;6048466;23;20327;-92
2021/09/24 11:32:59;;;;;;;17.70;12.15;;;18.80;99.90;;;20.37;84.37;100597.72;6048555;23;20047;-91
2021/09/24 11:35:41;;;;;;;20.73;13.48;;;19.00;99.90;;;20.42;83.01;100593.63;6024234;23;20011;-91
2021/09/24 11:38:22;;;;;;;22.15;12.10;;;19.20;99.90;;;20.82;83.61;100598.28;6023041;23;20007;-89
2021/09/24 11:40:56;;;;;;;18.52;12.00;;;19.30;99.90;;;20.85;82.64;100593.78;6023278;23;20007;-91
2021/09/24 11:43:33;;;;;;;18.85;11.23;;;19.40;99.90;;;20.96;82.60;100603.75;6024964;23;20015;-87
2021/09/24 11:46:18;;;;;;;14.52;9.93;;;19.40;99.90;;;20.89;83.42;100586.81;6054866;23;20015;-88
2021/09/24 11:48:46;;;;;;;16.45;11.00;;;19.40;99.90;;;20.49;82.76;100602.81;6052665;23;20011;-85
2021/09/24 11:51:24;;;;;;;18.67;11.52;;;19.30;99.90;;;20.42;83.32;100596.47;6046466;23;20071;-85
2021/09/24 11:53:57;;;;;;;16.38;11.20;;;19.10;99.90;;;20.39;83.38;100594.44;6043410;23;20015;-85
2021/09/24 11:56:38;;;;;;;17.92;11.65;;;19.00;99.90;;;20.30;84.43;100585.66;6020229;23;20030;-87
2021/09/24 11:59:12;;;;;;;18.52;11.73;;;19.10;99.90;;;20.58;83.28;100588.09;6043747;23;20003;-87
2021/09/24 12:01:44;;;;;;;17.33;10.77;;;19.10;99.90;;;20.79;82.33;100590.63;6044272;23;20011;-86
2021/09/24 12:04:14;;;;;;;17.30;11.00;;;19.30;99.90;;;20.77;82.09;100589.47;6021601;23;20019;-87
2021/09/24 12:06:45;;;;;;;16.08;9.45;;;19.30;99.90;;;20.76;82.84;100594.31;6046060;23;20179;-88
2021/09/24 12:09:17;;;;;;;15.32;10.07;;;19.30;99.90;;;20.46;82.97;100588.69;6023195;23;20090;-85
2021/09/24 12:11:53;;;;;;;14.40;9.93;;;19.20;99.90;;;20.31;84.15;100588.09;6021523;23;20045;-88
2021/09/24 12:14:23;;;;;;;14.23;10.00;;;19.00;99.90;;;20.33;85.74;100579.13;6053722;23;20049;-90
2021/09/24 12:16:49;;;;;;;13.68;10.15;;;18.90;99.90;;;19.99;85.58;100587.66;6030312;23;20014;-90
2021/09/24 12:19:25;;;;;;;15.73;10.43;;;18.80;99.90;;;19.91;86.14;100592.63;6046749;23;20022;-91
2021/09/24 12:21:59;;;;;;;16.08;10.32;;;18.70;99.90;;;20.05;85.83;100588.81;6023242;23;20007;-92
2021/09/24 12:24:35;;;;;;;16.38;9.98;;;18.70;99.90;;;20.13;84.58;100589.53;6022100;23;20015;-90
2021/09/24 12:27:32;;;;;;;18.35;10.90;;;18.70;99.90;;;19.91;86.00;100584.09;6046347;23;20085;-88
2021/09/24 12:30:20;;;;;;;17.50;10.50;;;18.60;99.90;;;19.73;87.24;100579.88;6022340;23;20430;-90
2021/09/24 12:32:49;;;;;;;18.27;9.77;;;18.50;99.90;;;19.98;86.98;100580.38;6047003;23;20019;-91
2021/09/24 12:35:15;;;;;;;16.17;10.57;;;18.60;99.90;;;19.81;86.32;100572.91;6023521;23;20007;-87
2021/09/24 12:37:45;;;;;;;21.42;10.45;;;18.60;99.90;;;19.97;86.82;100567.47;6022720;23;20015;-89
2021/09/24 12:40:17;;;;;;;14.70;9.60;;;18.70;99.90;;;20.43;85.42;100567.66;6022636;23;20007;-89
2021/09/24 12:43:02;;;;;;;18.17;10.38;;;19.00;99.90;;;20.63;83.41;100572.63;6021390;23;20007;-90
2021/09/24 12:45:34;;;;;;;13.00;9.68;;;19.30;99.90;;;20.71;81.53;100569.25;6022074;23;20011;-89
2021/09/24 12:48:15;;;;;;;16.92;9.75;;;19.40;99.90;;;20.69;80.85;100566.03;6023068;23;20079;-91
2021/09/24 12:50:46;;;;;;;15.10;10.60;;;19.40;99.90;;;20.87;79.99;100557.25;6023606;23;20060;-89
2021/09/24 12:53:19;;;;;;;17.27;9.88;;;19.50;99.90;;;21.29;79.41;100556.53;6046915;23;20090;-90
2021/09/24 12:55:50;;;;;;;16.92;10.60;;;19.90;99.90;;;21.56;77.50;100564.97;6048405;23;20034;-91
2021/09/24 12:58:16;;;;;;;12.95;8.93;;;20.20;99.90;;;21.52;76.56;100541.50;6047442;23;20007;-87
2021/09/24 13:00:46;;;;;;;14.10;9.60;;;20.20;99.90;;;21.12;77.88;100540.63;6057714;23;20023;-87
2021/09/24 13:03:16;;;;;;;16.60;9.45;;;20.00;99.90;;;21.36;77.93;100550.72;6040840;23;20003;-90
2021/09/24 13:05:44;;;;;;;16.25;9.50;;;20.10;99.90;;;21.40;76.63;100544.97;6041403;23;20003;-89
2021/09/24 13:08:13;;;;;;;16.13;9.60;;;20.10;99.90;;;21.44;76.88;100540.84;6041320;23;20011;-89
2021/09/24 13:10:42;;;;;;;13.10;8.45;;;20.10;99.90;;;21.47;76.67;100536.34;6042060;23;20008;-89
2021/09/24 13:13:10;;;;;;;12.30;8.43;;;20.10;99.90;;;21.67;76.61;100547.72;6060598;23;20027;-88
2021/09/24 13:15:37;;;;;;;16.35;8.82;;;20.10;99.90;;;21.64;76.01;100548.59;6022769;23;20011;-88
2021/09/24 13:18:07;;;;;;;15.30;8.50;;;20.10;99.90;;;21.40;75.36;100548.63;6044948;23;20454;-89
2021/09/24 13:20:34;;;;;;;11.10;8.45;;;20.00;99.90;;;21.28;77.12;100539.94;6022786;23;20026;-92
2021/09/24 13:23:00;;;;;;;16.77;9.25;;;20.00;99.90;;;21.19;76.74;100539.72;6045864;23;20089;-89